Airfield :
LOGIN :

Register | Disclaimer

   EN    FR    IT 

 










Legend :    VFR   Marginal VFR   IFR   Intensive IFR   Very Intensive IFR
Visi :
Ceiling :
>= 8 km
>= 3000ft
5 to 8 km
1000 to 3000 ft
1500m to 5 km
500 to 1000 ft
800 to 1500m
200 to 500 ft
< 800m
< 200 ft
Symbols :   Thunderstorms  Fog  Heavy snow  Heavy precipitations  Wind > 20 kt
SIGMETs :     Misc.  Thunderstorms  Icing  Turbulence  Mountain Waves  Volcanic Ashes






- Airport Elevation : 433 ft


LFOC - Chateaudun

CURRENT METAR :
  • 280500Z AUTO 22013KT 3700 -DZ BR ////// 11/10 Q1010

EXPIRED METARs :
  • 280430Z AUTO 22013KT 4900 -RA BR ////// 11/10 Q1010
  • 280400Z AUTO 23013KT 9999 ////// 11/10 Q1010
  • 280330Z AUTO 22013KT 6000 -DZ ////// 11/11 Q1011
  • 270300Z AUTO 19012KT 5000 BR ////// 02/02 Q1015
  • 280230Z AUTO 22012KT 7000 ////// 11/10 Q1011

TAF TAF LFOC
Valid from the 27 at 15:00 until the 28 at 15:00 UTC


271400Z 2715/2815 24009KT 8000 OVC003
TEMPO 2719/2801 4900 -RA
PROB40 2801/2806 2000 BR
PROB30
TEMPO 2802/2805 0800 FG VV///
TEMPO 2806/2810 24015G25KT 4900 -RA BKN008
BECMG 2814/2815 BKN009



MET'MAP, your aeronautical weather chart ! - Copyright ORBIFLY December 2007 - Disclaimer

ORBIFLY MET'MAP TEAM :

Programming & Development : Alexandra Zaïnal
Concept & original design : Baudouin d'Aumeries
Assistance for programming : Marc-Olivier Méhu
Technical & hardware support : Manuel Goepfert

Contact : metmap@orbifly.com




SOURCES & CREDITS :

   NOAA